Anaheim Hills, California
Current Conditions -  °F | °C
As of 8:56 PM on Friday 24 Oct 2014 (Local Time) from KAJO Reporting Station
Overcast Overcast  
Wind Chill: 65°   Ceiling: 100
Heat Index: 65°   Visibility: 10mi
Dew Point: 40°   Wind: 0mph
Humidity: 40%   Direction: NA
Pressure: 29.98"   Gusts: NA
Location:  33.8431°N, 117.777°W
Report Text: KAJO 250356Z AUTO 00000KT 10SM OVC001 18/04 A2998 RMK AO2 T01830044 OVC V BKN SLP148 $
Loading
Personal Weather Stations






























Interactive Weather Map
Tropical Storm Tracking
New forecast layout! Learn more

10-Day Weather Forecast

Advertisements
Track Severe Weather on mobile